TAF KHQM
AMD KHQM 270631Z 2707/2806 06006KT P6SM SCT007 OVC035 TEMPO 2707/2710 BKN007 OVC030 FM271200 16012KT P6SM -RA BKN020 OVC040 FM271800 16012G22KT 4SM RA BR OVC015 FM272200 20015G25KT P6SM VCSH BKN020 BKN040 OVC100=
METAR KHQM
WC KHQM
WS KHQM
WV KHQM